Wetterdaten: Woche 17.03.08 - 23.03.08 (KW12)
Datum Zeit Temp. a Sch. Temp. a Son. Temp. a Bod. Feuchte a. Luftdruck Regen Wind Richtung Sonnenschein Helligkeit Taupunkt Windchill
17.03.2008 00:00 6,4 C 6,6 C 5,8 C 95 % 1001 hPa 0,0 l/m 0,8 m/s (1 Bft) W-SW 0,00 h 0 lux 5,7 C 6,4 C
17.03.2008 01:00 6,3 C 6,6 C 5,6 C 93 % 1002 hPa 0,4 l/m 2,1 m/s (2 Bft) N-NW 0,00 h 0 lux 5,2 C 4,2 C
17.03.2008 02:00 5,0 C 5,8 C 4,7 C 90 % 1003 hPa 0,4 l/m 2,0 m/s (2 Bft) NW 0,00 h 0 lux 3,6 C 3,3 C
17.03.2008 03:00 4,4 C 5,2 C 4,2 C 90 % 1004 hPa 0,0 l/m 2,2 m/s (2 Bft) W-NW 0,00 h 0 lux 2,9 C 2,3 C
17.03.2008 04:00 4,1 C 4,7 C 3,5 C 87 % 1005 hPa 0,0 l/m 3,3 m/s (2 Bft) NW 0,00 h 0 lux 2,1 C 0,3 C
17.03.2008 05:00 3,8 C 4,3 C 3,3 C 86 % 1006 hPa 0,0 l/m 1,9 m/s (2 Bft) W-SW 0,00 h 0 lux 1,7 C 2,7 C
17.03.2008 06:00 3,7 C 4,1 C 2,9 C 83 % 1007 hPa 0,0 l/m 1,8 m/s (2 Bft) W 0,00 h 138 lux 1,1 C 3,1 C
17.03.2008 07:00 3,8 C 4,0 C 2,6 C 78 % 1007 hPa 0,0 l/m 3,3 m/s (2 Bft) W-NW 0,00 h 1,20 klux 0,3 C -0,4 C
17.03.2008 08:00 3,8 C 4,0 C 2,7 C 75 % 1008 hPa 0,0 l/m 2,2 m/s (2 Bft) W-NW 0,00 h 3,69 klux -0,2 C 1,5 C
17.03.2008 09:00 4,2 C 4,3 C 3,7 C 70 % 1009 hPa 0,0 l/m 3,1 m/s (2 Bft) W 0,00 h 11,2 klux -0,8 C 0,4 C
17.03.2008 10:00 4,9 C 5,5 C 4,7 C 71 % 1009 hPa 0,0 l/m 5,7 m/s (4 Bft) W 0,08 h 21,3 klux 0,1 C -3,2 C
17.03.2008 11:00 4,8 C 5,4 C 5,0 C 65 % 1010 hPa 0,0 l/m 6,1 m/s (4 Bft) W-NW 0,00 h 17,7 klux -1,3 C -3,8 C
17.03.2008 12:00 5,3 C 5,5 C 5,5 C 58 % 1010 hPa 0,0 l/m 5,4 m/s (3 Bft) NW 0,00 h 20,3 klux -2,2 C -2,1 C
17.03.2008 13:00 5,1 C 5,4 C 5,4 C 63 % 1010 hPa 0,0 l/m 7,3 m/s (4 Bft) NW 0,00 h 19,4 klux -1,3 C -4,9 C
17.03.2008 14:00 4,8 C 5,6 C 5,0 C 59 % 1010 hPa 0,0 l/m 7,3 m/s (4 Bft) W-NW 0,00 h 20,9 klux -2,4 C -5,5 C
17.03.2008 15:00 5,6 C 7,9 C 5,4 C 54 % 1010 hPa 0,0 l/m 6,3 m/s (4 Bft) W-NW 0,25 h 20,6 klux -2,9 C -3,1 C
17.03.2008 16:00 5,1 C 5,9 C 4,9 C 54 % 1009 hPa 0,0 l/m 4,7 m/s (3 Bft) W 0,00 h 7,80 klux -3,5 C -1,4 C
17.03.2008 17:00 4,2 C 4,8 C 3,9 C 60 % 1009 hPa 0,0 l/m 6,0 m/s (4 Bft) W 0,00 h 4,35 klux -2,9 C -4,3 C
17.03.2008 18:00 3,5 C 4,0 C 3,2 C 65 % 1009 hPa 0,0 l/m 2,9 m/s (2 Bft) W 0,00 h 297 lux -2,5 C 0,0 C
17.03.2008 19:00 2,6 C 3,1 C 2,4 C 69 % 1010 hPa 0,0 l/m 1,8 m/s (2 Bft) W-SW 0,00 h 18 lux -2,4 C 2,0 C
17.03.2008 20:00 2,4 C 2,7 C 2,2 C 72 % 1010 hPa 0,0 l/m 2,6 m/s (2 Bft) W-SW 0,00 h 0 lux -2,1 C -0,5 C
17.03.2008 21:00 2,3 C 2,6 C 1,9 C 69 % 1010 hPa 0,0 l/m 3,9 m/s (3 Bft) W 0,00 h 0 lux -2,8 C -3,2 C
17.03.2008 22:00 1,9 C 2,2 C 1,4 C 70 % 1010 hPa 0,0 l/m 3,1 m/s (2 Bft) W 0,00 h 0 lux -3,0 C -2,1 C
17.03.2008 23:00 1,3 C 1,7 C 0,9 C 75 % 1010 hPa 0,0 l/m 2,6 m/s (2 Bft) W 0,00 h 0 lux -2,7 C -1,7 C
18.03.2008 00:00 0,5 C 1,1 C 0,4 C 87 % 1010 hPa 0,0 l/m 2,6 m/s (2 Bft) W-SW 0,00 h 0 lux -1,4 C -2,5 C
18.03.2008 01:00 -0,1 C 0,2 C -0,3 C 86 % 1010 hPa 0,0 l/m 1,7 m/s (2 Bft) W-SW 0,00 h 0 lux -2,2 C -1,1 C
18.03.2008 02:00 -0,4 C -0,2 C -0,6 C 86 % 1010 hPa 0,0 l/m 1,7 m/s (2 Bft) W-SW 0,00 h 0 lux -2,5 C -1,3 C
18.03.2008 03:00 -0,7 C -0,5 C -1,0 C 86 % 1010 hPa 0,0 l/m 2,0 m/s (2 Bft) W-SW 0,00 h 0 lux -2,7 C -1,6 C
18.03.2008 04:00 -1,2 C -1,2 C -1,6 C 84 % 1010 hPa 0,0 l/m 2,5 m/s (2 Bft) W-SW 0,00 h 0 lux -3,5 C -3,6 C
18.03.2008 05:00 -1,6 C -1,7 C -1,9 C 85 % 1010 hPa 0,0 l/m 2,5 m/s (2 Bft) W-SW 0,00 h 0 lux -3,8 C -4,3 C
18.03.2008 06:00 -1,7 C -1,9 C -1,9 C 86 % 1010 hPa 0,0 l/m 2,2 m/s (2 Bft) W-SW 0,00 h 348 lux -3,7 C -3,5 C
18.03.2008 07:00 -0,7 C -0,9 C -1,1 C 84 % 1011 hPa 0,0 l/m 3,4 m/s (2 Bft) W 0,00 h 5,78 klux -3,0 C -5,7 C
18.03.2008 08:00 0,6 C 0,2 C 0,1 C 80 % 1011 hPa 0,0 l/m 3,8 m/s (3 Bft) W-SW 0,58 h 22,7 klux -2,5 C -5,2 C
18.03.2008 09:00 2,2 C 2,1 C 1,5 C 72 % 1011 hPa 0,0 l/m 7,5 m/s (4 Bft) W-NW 0,92 h 40,1 klux -2,3 C -9,2 C
18.03.2008 10:00 3,0 C 5,0 C 2,7 C 67 % 1011 hPa 0,0 l/m 9,4 m/s (5 Bft) W-NW 0,67 h 42,5 klux -2,4 C -10,0 C
18.03.2008 11:00 4,4 C 7,1 C 4,8 C 59 % 1011 hPa 0,0 l/m 9,4 m/s (5 Bft) W-NW 0,67 h 48,1 klux -2,9 C -8,1 C
18.03.2008 12:00 5,3 C 10,0 C 5,6 C 57 % 1012 hPa 0,0 l/m 8,9 m/s (5 Bft) W 0,67 h 48,6 klux -2,5 C -6,4 C
18.03.2008 13:00 5,4 C 9,5 C 5,2 C 58 % 1011 hPa 0,0 l/m 7,7 m/s (4 Bft) W 0,58 h 44,5 klux -2,1 C -5,0 C
18.03.2008 14:00 6,5 C 12,6 C 5,5 C 55 % 1011 hPa 0,0 l/m 8,0 m/s (5 Bft) W 1,00 h 53,9 klux -1,9 C -3,9 C
18.03.2008 15:00 5,7 C 11,1 C 4,9 C 59 % 1011 hPa 0,0 l/m 7,8 m/s (4 Bft) W 0,58 h 32,9 klux -1,7 C -4,7 C
18.03.2008 16:00 4,4 C 7,8 C 3,5 C 64 % 1011 hPa 0,0 l/m 7,9 m/s (4 Bft) W-NW 0,25 h 12,7 klux -1,7 C -5,8 C
18.03.2008 17:00 4,6 C 8,9 C 3,6 C 62 % 1011 hPa 0,0 l/m 5,8 m/s (4 Bft) W 1,00 h 16,9 klux -2,2 C -3,8 C
18.03.2008 18:00 3,6 C 5,0 C 2,9 C 65 % 1011 hPa 0,0 l/m 4,2 m/s (3 Bft) W 0,17 h 1,68 klux -2,3 C -2,1 C
18.03.2008 19:00 2,9 C 3,2 C 2,2 C 68 % 1011 hPa 0,0 l/m 3,4 m/s (3 Bft) W 0,00 h 24 lux -2,4 C -1,8 C
18.03.2008 20:00 2,9 C 2,8 C 2,0 C 68 % 1012 hPa 0,0 l/m 3,4 m/s (2 Bft) W 0,00 h 0 lux -2,4 C -1,7 C
18.03.2008 21:00 2,2 C 2,5 C 1,3 C 77 % 1012 hPa 0,0 l/m 3,5 m/s (3 Bft) W 0,00 h 0 lux -1,3 C -2,0 C
18.03.2008 22:00 1,5 C 1,8 C 0,5 C 80 % 1012 hPa 0,0 l/m 2,2 m/s (2 Bft) W 0,00 h 0 lux -1,5 C -0,1 C
18.03.2008 23:00 1,6 C 1,7 C 0,6 C 82 % 1012 hPa 0,0 l/m 3,3 m/s (2 Bft) W 0,00 h 0 lux -1,2 C -3,0 C
19.03.2008 00:00 1,5 C 1,6 C 0,6 C 83 % 1012 hPa 0,0 l/m 2,6 m/s (2 Bft) W 0,00 h 0 lux -1,1 C -1,1 C
19.03.2008 01:00 0,8 C 1,2 C 0,0 C 89 % 1012 hPa 0,0 l/m 1,9 m/s (2 Bft) W 0,00 h 0 lux -0,8 C -0,2 C
19.03.2008 02:00 0,9 C 1,1 C -0,0 C 90 % 1011 hPa 0,4 l/m 2,2 m/s (2 Bft) W 0,00 h 0 lux -0,5 C -0,8 C
19.03.2008 03:00 1,0 C 1,2 C 0,2 C 90 % 1011 hPa 0,4 l/m 2,5 m/s (2 Bft) W 0,00 h 0 lux -0,5 C -1,5 C
19.03.2008 04:00 0,9 C 0,9 C -0,0 C 88 % 1010 hPa 0,0 l/m 3,4 m/s (2 Bft) W 0,00 h 0 lux -0,8 C -4,0 C
19.03.2008 05:00 0,7 C 0,8 C -0,2 C 89 % 1010 hPa 0,0 l/m 3,0 m/s (2 Bft) W 0,00 h 0 lux -0,9 C -3,1 C
19.03.2008 06:00 0,7 C 0,6 C -0,4 C 88 % 1010 hPa 0,0 l/m 3,4 m/s (2 Bft) W-SW 0,00 h 810 lux -1,1 C -4,2 C
19.03.2008 07:00 1,1 C 0,6 C -0,2 C 86 % 1010 hPa 0,0 l/m 4,3 m/s (3 Bft) W-SW 0,58 h 12,9 klux -1,0 C -5,7 C
19.03.2008 08:00 1,6 C 1,5 C 0,7 C 85 % 1011 hPa 0,4 l/m 4,2 m/s (3 Bft) W 0,00 h 10,4 klux -0,6 C -4,8 C
19.03.2008 09:00 2,6 C 2,5 C 1,6 C 80 % 1011 hPa 0,4 l/m 6,2 m/s (4 Bft) W-NW 0,58 h 36,4 klux -0,5 C -6,8 C
19.03.2008 10:00 3,3 C 6,2 C 2,4 C 76 % 1011 hPa 0,4 l/m 6,8 m/s (4 Bft) W-NW 0,58 h 43,0 klux -0,6 C -6,9 C
19.03.2008 11:00 4,2 C 8,3 C 4,1 C 68 % 1011 hPa 0,0 l/m 7,2 m/s (4 Bft) NW 0,58 h 43,5 klux -1,1 C -5,9 C
19.03.2008 12:00 4,4 C 8,2 C 4,5 C 67 % 1011 hPa 0,0 l/m 6,7 m/s (4 Bft) NW 0,33 h 36,5 klux -1,2 C -5,2 C
19.03.2008 13:00 4,8 C 10,2 C 4,0 C 63 % 1011 hPa 0,0 l/m 7,1 m/s (4 Bft) W 0,75 h 55,6 klux -1,8 C -4,8 C
19.03.2008 14:00 5,3 C 10,7 C 3,9 C 56 % 1011 hPa 0,0 l/m 7,3 m/s (4 Bft) W-NW 0,50 h 33,0 klux -2,7 C -4,7 C
19.03.2008 15:00 4,7 C 9,4 C 3,7 C 60 % 1011 hPa 0,4 l/m 6,1 m/s (4 Bft) W 0,50 h 27,0 klux -2,5 C -3,1 C
19.03.2008 16:00 4,1 C 10,9 C 3,2 C 68 % 1011 hPa 0,0 l/m 4,6 m/s (3 Bft) NW 0,58 h 26,1 klux -1,2 C -2,7 C
19.03.2008 17:00 3,9 C 9,0 C 3,1 C 61 % 1012 hPa 0,0 l/m 4,4 m/s (3 Bft) W-NW 0,83 h 17,9 klux -2,8 C -2,4 C
19.03.2008 18:00 2,6 C 4,3 C 1,9 C 67 % 1013 hPa 0,0 l/m 4,4 m/s (3 Bft) NW 0,00 h 905 lux -2,9 C -4,1 C
19.03.2008 19:00 0,8 C 1,5 C 0,3 C 75 % 1014 hPa 0,0 l/m 2,2 m/s (2 Bft) W 0,00 h 17 lux -3,0 C -1,0 C
19.03.2008 20:00 0,1 C 0,5 C -0,3 C 82 % 1014 hPa 0,0 l/m 2,0 m/s (2 Bft) W 0,00 h 0 lux -2,6 C -1,2 C
19.03.2008 21:00 -0,7 C -0,2 C -0,8 C 86 % 1014 hPa 0,0 l/m 1,1 m/s (1 Bft) W-SW 0,00 h 0 lux -2,7 C -1,0 C
19.03.2008 22:00 -1,2 C -1,0 C -1,4 C 88 % 1015 hPa 0,0 l/m 1,3 m/s (1 Bft) W-SW 0,00 h 0 lux -2,9 C -1,3 C
19.03.2008 23:00 -1,5 C -1,5 C -1,6 C 89 % 1015 hPa 0,0 l/m 1,7 m/s (2 Bft) W-SW 0,00 h 0 lux -3,1 C -1,9 C
20.03.2008 00:00 -1,6 C -1,6 C -1,6 C 90 % 1015 hPa 0,0 l/m 1,5 m/s (1 Bft) W-SW 0,00 h 0 lux -3,1 C -1,8 C
20.03.2008 01:00 -1,1 C -1,2 C -1,4 C 89 % 1015 hPa 0,0 l/m 2,0 m/s (2 Bft) W-SW 0,00 h 0 lux -2,7 C -2,4 C
20.03.2008 02:00 -0,5 C -0,7 C -1,2 C 90 % 1014 hPa 0,0 l/m 3,1 m/s (2 Bft) W-SW 0,00 h 0 lux -2,0 C -4,7 C
20.03.2008 03:00 0,2 C -0,0 C -0,8 C 88 % 1014 hPa 0,0 l/m 4,3 m/s (3 Bft) W 0,00 h 0 lux -1,5 C -7,0 C
20.03.2008 04:00 0,6 C 0,6 C -0,5 C 88 % 1013 hPa 0,0 l/m 4,3 m/s (3 Bft) W 0,00 h 0 lux -1,1 C -6,4 C
20.03.2008 05:00 0,5 C 0,5 C -0,6 C 88 % 1013 hPa 0,0 l/m 4,1 m/s (3 Bft) W 0,00 h 0 lux -1,3 C -6,0 C
20.03.2008 06:00 0,6 C 0,5 C -0,6 C 87 % 1013 hPa 0,0 l/m 3,1 m/s (2 Bft) W 0,00 h 474 lux -1,3 C -3,5 C
20.03.2008 07:00 0,9 C 0,9 C -0,4 C 86 % 1013 hPa 0,0 l/m 3,6 m/s (3 Bft) W 0,00 h 3,42 klux -1,1 C -4,4 C
20.03.2008 08:00 1,3 C 1,3 C -0,1 C 86 % 1013 hPa 0,0 l/m 2,5 m/s (2 Bft) W 0,00 h 9,0 klux -0,8 C -1,2 C
20.03.2008 09:00 2,3 C 2,4 C 0,8 C 80 % 1014 hPa 0,0 l/m 4,0 m/s (3 Bft) W-SW 0,07 h 18,2 klux -0,8 C -3,6 C
20.03.2008 10:00 3,1 C 3,3 C 2,2 C 78 % 1013 hPa 0,4 l/m 4,6 m/s (3 Bft) W 0,00 h 25,0 klux -0,3 C -3,4 C
20.03.2008 11:00 3,5 C 3,9 C 3,1 C 78 % 1013 hPa 0,4 l/m 4,6 m/s (3 Bft) W 0,00 h 23,7 klux -0,0 C -3,3 C
20.03.2008 12:00 3,7 C 4,0 C 3,1 C 75 % 1013 hPa 0,0 l/m 5,0 m/s (3 Bft) W 0,00 h 14,8 klux -0,3 C -3,9 C
20.03.2008 13:00 4,6 C 4,9 C 4,1 C 74 % 1011 hPa 0,0 l/m 6,0 m/s (4 Bft) W-SW 0,00 h 19,8 klux 0,4 C -4,1 C
20.03.2008 14:00 3,6 C 3,8 C 3,4 C 80 % 1010 hPa 0,0 l/m 6,0 m/s (4 Bft) W 0,00 h 9,6 klux 0,5 C -5,5 C
20.03.2008 15:00 4,3 C 4,4 C 3,9 C 75 % 1009 hPa 0,0 l/m 5,6 m/s (4 Bft) W 0,00 h 13,3 klux 0,3 C -4,0 C
20.03.2008 16:00 4,4 C 4,5 C 3,8 C 72 % 1008 hPa 0,0 l/m 6,6 m/s (4 Bft) W 0,00 h 11,5 klux -0,3 C -5,1 C
20.03.2008 17:00 4,1 C 4,2 C 3,3 C 72 % 1006 hPa 0,0 l/m 5,8 m/s (4 Bft) W 0,00 h 3,40 klux -0,5 C -4,5 C
20.03.2008 18:00 3,4 C 3,4 C 2,6 C 78 % 1005 hPa 0,0 l/m 5,9 m/s (4 Bft) W-SW 0,00 h 515 lux -0,1 C -5,6 C
20.03.2008 19:00 2,5 C 2,6 C 1,9 C 87 % 1004 hPa 0,4 l/m 5,3 m/s (3 Bft) W-SW 0,00 h 27 lux 0,4 C -5,9 C
20.03.2008 20:00 2,2 C 2,1 C 1,6 C 88 % 1002 hPa 0,0 l/m 6,6 m/s (4 Bft) W-SW 0,00 h 0 lux 0,4 C -8,1 C
20.03.2008 21:00 1,7 C 1,6 C 1,2 C 91 % 1000 hPa 1,1 l/m 6,1 m/s (4 Bft) W-SW 0,00 h 0 lux 0,3 C -8,2 C
20.03.2008 22:00 1,3 C 1,1 C 0,7 C 92 % 997 hPa 0,7 l/m 6,7 m/s (4 Bft) SW 0,00 h 0 lux 0,1 C -9,5 C
20.03.2008 23:00 1,0 C 0,7 C 0,2 C 92 % 995 hPa 1,8 l/m 6,6 m/s (4 Bft) SW 0,00 h 0 lux -0,1 C -9,7 C
21.03.2008 00:00 1,0 C 0,7 C 0,1 C 93 % 992 hPa 1,4 l/m 5,8 m/s (4 Bft) SW 0,00 h 0 lux -0,0 C -8,7 C
21.03.2008 01:00 0,9 C 0,6 C -0,1 C 93 % 990 hPa 1,8 l/m 6,0 m/s (4 Bft) SW 0,00 h 0 lux -0,1 C -9,1 C
21.03.2008 02:00 1,0 C 0,7 C 0,0 C 93 % 988 hPa 0,7 l/m 4,5 m/s (3 Bft) W-SW 0,00 h 0 lux -0,0 C -6,5 C
21.03.2008 03:00 1,3 C 1,0 C 0,4 C 93 % 986 hPa 1,1 l/m 4,1 m/s (3 Bft) W-SW 0,00 h 0 lux 0,3 C -5,0 C
21.03.2008 04:00 1,7 C 1,4 C 0,7 C 93 % 986 hPa 1,1 l/m 4,1 m/s (3 Bft) W-SW 0,00 h 0 lux 0,7 C -4,6 C
21.03.2008 05:00 1,7 C 1,5 C 0,8 C 93 % 984 hPa 0,0 l/m 2,7 m/s (2 Bft) SW 0,00 h 0 lux 0,7 C -1,6 C
21.03.2008 06:00 1,7 C 1,4 C 0,8 C 93 % 983 hPa 0,4 l/m 3,8 m/s (3 Bft) W-SW 0,00 h 316 lux 0,7 C -3,9 C
21.03.2008 07:00 2,1 C 1,7 C 1,1 C 92 % 982 hPa 0,0 l/m 2,9 m/s (2 Bft) W-SW 0,00 h 2,16 klux 0,9 C -1,3 C
21.03.2008 08:00 2,9 C 2,4 C 2,0 C 91 % 981 hPa 0,4 l/m 4,2 m/s (3 Bft) W-SW 0,08 h 8,66 klux 1,6 C -3,3 C
21.03.2008 09:00 4,1 C 3,4 C 3,0 C 88 % 980 hPa 0,0 l/m 4,1 m/s (3 Bft) W-SW 0,00 h 12,4 klux 2,3 C -1,6 C
21.03.2008 10:00 4,4 C 4,0 C 3,4 C 87 % 979 hPa 0,0 l/m 6,1 m/s (4 Bft) SW 0,08 h 16,9 klux 2,4 C -4,7 C
21.03.2008 11:00 4,6 C 4,4 C 3,8 C 83 % 979 hPa 0,4 l/m 7,1 m/s (4 Bft) W-SW 0,00 h 22,4 klux 2,0 C -5,6 C
21.03.2008 12:00 4,3 C 5,6 C 3,0 C 79 % 978 hPa 1,1 l/m 8,7 m/s (5 Bft) W-SW 0,23 h 37,7 klux 1,0 C -7,1 C
21.03.2008 13:00 3,5 C 5,0 C 2,9 C 81 % 978 hPa 0,0 l/m 9,0 m/s (5 Bft) W 0,08 h 33,5 klux 0,5 C -9,0 C
21.03.2008 14:00 3,3 C 4,5 C 2,3 C 78 % 978 hPa 0,4 l/m 7,9 m/s (4 Bft) W 0,00 h 18,4 klux -0,2 C -8,0 C
21.03.2008 15:00 2,5 C 6,0 C 1,7 C 86 % 978 hPa 0,4 l/m 6,8 m/s (4 Bft) W 0,50 h 35,9 klux 0,4 C -7,8 C
21.03.2008 16:00 1,4 C 3,2 C 0,7 C 89 % 979 hPa 0,4 l/m 5,8 m/s (4 Bft) W-SW 0,00 h 9,3 klux -0,3 C -7,9 C
21.03.2008 17:00 1,4 C 1,8 C 0,7 C 90 % 979 hPa 0,0 l/m 4,7 m/s (3 Bft) W-SW 0,00 h 5,28 klux -0,1 C -6,4 C
21.03.2008 18:00 0,9 C 1,2 C 0,4 C 92 % 979 hPa 0,4 l/m 1,8 m/s (2 Bft) W-SW 0,00 h 748 lux -0,2 C -0,2 C
21.03.2008 19:00 1,0 C 1,1 C 0,1 C 92 % 980 hPa 0,0 l/m 3,0 m/s (2 Bft) W-SW 0,00 h 11 lux -0,2 C -2,8 C
21.03.2008 20:00 0,3 C 0,6 C -0,4 C 93 % 980 hPa 0,0 l/m 4,7 m/s (3 Bft) W-SW 0,00 h 0 lux -0,6 C -7,4 C
21.03.2008 21:00 0,5 C 0,5 C -0,4 C 89 % 980 hPa 0,0 l/m 4,3 m/s (3 Bft) W-SW 0,00 h 0 lux -1,1 C -6,5 C
21.03.2008 22:00 0,3 C 0,4 C -0,5 C 92 % 980 hPa 0,4 l/m 4,0 m/s (3 Bft) W-SW 0,00 h 0 lux -0,8 C -6,2 C
21.03.2008 23:00 0,5 C 0,5 C -0,3 C 91 % 981 hPa 0,0 l/m 4,2 m/s (3 Bft) W-SW 0,00 h 0 lux -0,8 C -6,1 C
22.03.2008 00:00 0,6 C 0,6 C -0,3 C 91 % 982 hPa 0,0 l/m 3,7 m/s (3 Bft) W-SW 0,00 h 0 lux -0,7 C -5,1 C
22.03.2008 01:00 0,7 C 0,7 C -0,1 C 91 % 982 hPa 0,0 l/m 1,6 m/s (2 Bft) W-SW 0,00 h 0 lux -0,6 C -0,1 C
22.03.2008 02:00 0,5 C 0,6 C -0,2 C 92 % 982 hPa 0,0 l/m 2,3 m/s (2 Bft) W-SW 0,00 h 0 lux -0,6 C -1,2 C
22.03.2008 03:00 0,4 C 0,5 C -0,3 C 91 % 982 hPa 0,0 l/m 0,4 m/s (1 Bft) W-SW 0,00 h 0 lux -0,9 C 0,3 C
22.03.2008 04:00 -0,2 C 0,1 C -0,5 C 92 % 983 hPa 0,0 l/m 0,2 m/s (0 Bft) SW 0,00 h 0 lux -1,3 C -0,2 C
22.03.2008 05:00 -0,3 C -0,0 C -0,6 C 93 % 983 hPa 0,0 l/m 0,1 m/s (0 Bft) W 0,00 h 0 lux -1,3 C -0,3 C
22.03.2008 06:00 -0,3 C -0,2 C -0,6 C 93 % 984 hPa 0,0 l/m 0,0 m/s (0 Bft) N 0,00 h 566 lux -1,3 C -0,3 C
22.03.2008 07:00 0,0 C 0,0 C -0,5 C 93 % 984 hPa 0,0 l/m 0,0 m/s (0 Bft) N 0,00 h 6,21 klux -1,0 C 0,0 C
22.03.2008 08:00 1,3 C 1,1 C 0,6 C 90 % 985 hPa 0,0 l/m 0,2 m/s (0 Bft) O-SO 0,00 h 10,8 klux -0,2 C 1,3 C
22.03.2008 09:00 1,8 C 2,3 C 1,4 C 88 % 986 hPa 0,7 l/m 1,1 m/s (1 Bft) O-SO 0,00 h 12,8 klux 0,0 C 1,7 C
22.03.2008 10:00 3,1 C 3,5 C 2,6 C 85 % 986 hPa 0,7 l/m 0,3 m/s (0 Bft) O-SO 0,00 h 22,3 klux 0,8 C 3,1 C
22.03.2008 11:00 4,8 C 5,4 C 4,0 C 77 % 987 hPa 0,0 l/m 0,9 m/s (1 Bft) SO 0,17 h 33,6 klux 1,2 C 4,8 C
22.03.2008 12:00 5,5 C 8,0 C 4,5 C 73 % 987 hPa 0,0 l/m 1,9 m/s (2 Bft) W-SW 0,25 h 41,7 klux 1,0 C 4,4 C
22.03.2008 13:00 5,8 C 10,8 C 4,6 C 69 % 988 hPa 0,0 l/m 1,9 m/s (2 Bft) SW 0,33 h 37,9 klux 0,6 C 4,6 C
22.03.2008 14:00 5,9 C 9,2 C 5,0 C 64 % 988 hPa 0,0 l/m 2,3 m/s (2 Bft) W-NW 0,33 h 29,3 klux -0,4 C 3,8 C
22.03.2008 15:00 5,6 C 9,9 C 4,4 C 62 % 988 hPa 0,0 l/m 3,4 m/s (3 Bft) N 0,35 h 26,9 klux -1,1 C 1,6 C
22.03.2008 16:00 6,9 C 13,9 C 5,2 C 59 % 989 hPa 0,0 l/m 4,2 m/s (3 Bft) W-NW 0,92 h 34,3 klux -0,6 C 1,8 C
22.03.2008 17:00 5,4 C 11,7 C 4,7 C 66 % 990 hPa 0,4 l/m 3,8 m/s (3 Bft) N 0,58 h 16,7 klux -0,4 C 0,5 C
22.03.2008 18:00 2,8 C 5,1 C 2,6 C 83 % 990 hPa 0,0 l/m 3,4 m/s (3 Bft) O 0,33 h 2,60 klux 0,2 C -1,7 C
22.03.2008 19:00 2,1 C 3,2 C 1,7 C 83 % 992 hPa 0,0 l/m 1,9 m/s (2 Bft) O 0,00 h 17 lux -0,4 C 0,9 C
22.03.2008 20:00 1,7 C 2,5 C 1,3 C 80 % 993 hPa 0,0 l/m 2,4 m/s (2 Bft) O 0,00 h 0 lux -1,4 C -0,7 C
22.03.2008 21:00 1,1 C 1,9 C 0,7 C 81 % 994 hPa 0,0 l/m 2,9 m/s (2 Bft) O-SO 0,00 h 0 lux -1,8 C -2,4 C
22.03.2008 22:00 0,2 C 1,0 C 0,1 C 85 % 994 hPa 0,0 l/m 1,7 m/s (2 Bft) O-SO 0,00 h 0 lux -2,0 C -0,9 C
22.03.2008 23:00 0,4 C 1,0 C 0,0 C 80 % 995 hPa 0,0 l/m 2,5 m/s (2 Bft) O-NO 0,00 h 0 lux -2,6 C -2,2 C
23.03.2008 00:00 -0,0 C 1,0 C -0,3 C 78 % 995 hPa 0,0 l/m 2,4 m/s (2 Bft) O 0,00 h 0 lux -3,4 C -2,5 C
23.03.2008 01:00 -0,1 C 1,0 C -0,4 C 77 % 995 hPa 0,0 l/m 1,5 m/s (1 Bft) N-NW 0,00 h 0 lux -3,7 C -1,5 C
23.03.2008 02:00 -0,3 C 1,0 C -0,6 C 74 % 995 hPa 0,0 l/m 2,4 m/s (2 Bft) NW 0,00 h 0 lux -4,4 C -3,2 C
23.03.2008 03:00 -0,9 C -0,2 C -1,1 C 77 % 996 hPa 0,0 l/m 3,0 m/s (2 Bft) W-NW 0,00 h 0 lux -4,4 C -4,9 C
23.03.2008 04:00 -1,6 C -1,0 C -1,6 C 77 % 996 hPa 0,0 l/m 2,3 m/s (2 Bft) N 0,00 h 0 lux -5,1 C -3,9 C
23.03.2008 05:00 -2,2 C -1,7 C -2,1 C 77 % 997 hPa 0,0 l/m 3,0 m/s (2 Bft) NW 0,00 h 0 lux -5,7 C -7,0 C
23.03.2008 06:00 -2,8 C -2,4 C -2,6 C 75 % 997 hPa 0,0 l/m 3,1 m/s (2 Bft) NW 0,00 h 547 lux -6,6 C -7,6 C
23.03.2008 07:00 -2,5 C -2,4 C -2,3 C 71 % 997 hPa 0,0 l/m 2,1 m/s (2 Bft) NW 0,00 h 7,10 klux -6,9 C -4,8 C
23.03.2008 08:00 -1,4 C -1,3 C -1,2 C 63 % 998 hPa 0,0 l/m 2,7 m/s (2 Bft) N-NO 0,17 h 21,0 klux -7,4 C -4,6 C
23.03.2008 09:00 -1,3 C -0,9 C -1,1 C 60 % 998 hPa 0,0 l/m 3,3 m/s (2 Bft) NW 0,00 h 11,3 klux -8,0 C -6,2 C
23.03.2008 10:00 -1,0 C -1,0 C -0,6 C 59 % 998 hPa 0,0 l/m 1,2 m/s (1 Bft) N-NO 0,00 h 12,5 klux -8,1 C -1,2 C
23.03.2008 11:00 -0,8 C -1,0 C -0,4 C 58 % 998 hPa 0,0 l/m 1,1 m/s (1 Bft) N-NO 0,00 h 11,1 klux -8,0 C -1,0 C
23.03.2008 12:00 -0,5 C -1,0 C 0,2 C 57 % 998 hPa 0,0 l/m 1,8 m/s (2 Bft) NW 0,00 h 13,3 klux -7,9 C -2,0 C
23.03.2008 13:00 -0,3 C -1,0 C 0,4 C 57 % 998 hPa 0,0 l/m 1,5 m/s (1 Bft) N-NW 0,00 h 14,0 klux -7,7 C -0,9 C
23.03.2008 14:00 0,7 C -1,0 C 1,4 C 53 % 998 hPa 0,0 l/m 2,1 m/s (2 Bft) W 0,00 h 20,2 klux -7,8 C -1,2 C
23.03.2008 15:00 0,9 C -1,0 C 1,3 C 53 % 998 hPa 0,0 l/m 2,1 m/s (2 Bft) S-SW 0,00 h 15,5 klux -7,6 C -1,1 C
23.03.2008 16:00 0,6 C -1,0 C 0,1 C 53 % 998 hPa 0,0 l/m 1,1 m/s (1 Bft) O-SO 0,60 h 26,2 klux -8,0 C 0,5 C
23.03.2008 17:00 0,6 C -0,6 C -0,1 C 54 % 997 hPa 0,0 l/m 1,2 m/s (1 Bft) S-SO 0,08 h 12,4 klux -7,6 C 0,5 C
23.03.2008 18:00 -1,3 C 0,0 C -1,5 C 59 % 997 hPa 0,0 l/m 0,5 m/s (1 Bft) O-SO 0,00 h 1,12 klux -8,2 C -1,3 C
23.03.2008 19:00 -3,0 C 0,0 C -2,6 C 66 % 998 hPa 0,0 l/m 0,1 m/s (0 Bft) NO 0,00 h 16 lux -8,4 C -3,0 C
23.03.2008 20:00 -4,0 C 0,0 C -3,0 C 69 % 998 hPa 0,0 l/m 0,0 m/s (0 Bft) N 0,00 h 0 lux -8,7 C -4,0 C
23.03.2008 21:00 -4,9 C 0,0 C -3,7 C 74 % 997 hPa 0,0 l/m 0,0 m/s (0 Bft) N 0,00 h 0 lux -8,8 C -4,9 C
23.03.2008 22:00 -5,7 C 0,0 C -4,2 C 78 % 997 hPa 0,0 l/m 0,0 m/s (0 Bft) N 0,00 h 0 lux -8,9 C -5,7 C
23.03.2008 23:00 -6,5 C 0,0 C -4,8 C 80 % 997 hPa 0,0 l/m 0,0 m/s (0 Bft) N 0,00 h 0 lux -9,3 C -6,5 C
Min-Datum _ 23.03.08 23.03.08 23.03.08 18.03.08 21.03.08 - 17.03.08 - - - 23.03.08 21.03.08
_ Min-Zeit 23:59 07:00 23:59 14:55 11:50 - 00:25 - - - 23:39 12:40
Minimum _ -6,8 C -2,8 C -5,4 C 48 % 978 hPa - 0,0 m/s (0 Bft) - - - -9,6 C -12,8 C
Max-Datum _ 18.03.08 22.03.08 18.03.08 17.03.08 19.03.08 20.03.08 19.03.08 - 18.03.08 22.03.08 17.03.08 22.03.08
_ Max-Zeit 14:55 17:00 14:55 00:00 22:20 23:00 15:05 - 10:30 13:25 00:30 16:40
Maximum _ 7,5 C 15,4 C 6,7 C 95 % 1015 hPa 1,8 l/m 14,9 m/s
W (7 Bft)
- 0,17 h 76,0 klux 5,8 C 6,9 C
Durchschnitt _ 1,8 C 2,8 C 1,3 C 78 % 1001 hPa #19,4 l/m 3,7 m/s (3 Bft) W #18:25 h 9,9 klux -1,8 C -3,0 C